首页
METAR-TAF:

METAR-TAF

机场 :

奧斯拉瓦河畔納梅什季, 捷克共和国

纬度: 49-09-57N, 经度: 16-07-30E, 海拔: 472米

当前天气观测

该预报发布于45分钟前的04:30 UTC
静风
温度 6°C
湿度 93%
气压 1017 hPa
能見度: 0100

METAR: LKNA 230430Z 00000KT 0100 FG VV002 06/05 Q1017 NOSIG RMK RED RED

时间: 07:15 (05:15 UTC)

预报

该预报发布于6小时和15分钟前的23:00 UTC
预报有效从23日的 00点(UTC)到 24日的 00点(UTC)
风速2节,风向多变
能見度: 2000
多云层高于600英尺
轻雾
几率 40%
从 23日的 00点(UTC)到 23日的 07点(UTC)
能見度: 0500
层高于200英尺
成为
从 23日的 09点(UTC)到 23日的 11点(UTC)
风速6节,风向
能見度: 4000
多云层高于1200英尺
轻雾
短暂存在
从 23日的 14点(UTC)到 23日的 20点(UTC)
能见度10公里或以上
多云层高于2000英尺
成为
从 23日的 18点(UTC)到 23日的 20点(UTC)
能見度: 2000
阴天层高于600英尺
轻雾

TAF: LKNA 222300Z 2300/2400 VRB02KT 2000 BR BKN006 PROB40 2300/2307 0500 FG VV002 BECMG 2309/2311 17006KT 4000 BR BKN012 TEMPO 2314/2320 9999 BKN020 BECMG 2318/2320 2000 BR OVC006

超过4000个机场的气象观测和天气预报(METAR&TAF报告)。

可查询的气象台以黄色和红色小点在地图上表示。

将鼠标移到小点上方,可查看气象台名称。

然后点击查看天气观测和预报。

如需切换地图:点击带黑十字的绿色按钮放大地图;点击带横线的绿色按钮缩小地图;或者点击绿色箭头查看邻近地区的地图。


METAR-TAF: